createdAt,value
2018-11-28T00:00:04.381Z,32.73
2018-11-28T00:02:32.497Z,30.23
2018-11-28T00:05:00.631Z,35.38
2018-11-28T00:07:28.758Z,39.95
2018-11-28T00:09:56.871Z,33.93
2018-11-28T00:12:24.999Z,34.88
2018-11-28T00:14:53.098Z,34.13
2018-11-28T00:17:21.206Z,35.68
2018-11-28T00:19:49.340Z,38.40
2018-11-28T00:22:17.434Z,35.00
2018-11-28T00:24:45.526Z,33.80
2018-11-28T00:27:13.648Z,31.20
2018-11-28T00:29:41.757Z,33.73
2018-11-28T00:32:09.870Z,31.90
2018-11-28T00:34:37.988Z,31.50
2018-11-28T00:37:06.294Z,32.45
2018-11-28T00:39:34.559Z,33.02
2018-11-28T00:42:02.661Z,32.33
2018-11-28T00:44:30.767Z,36.65
2018-11-28T00:46:58.878Z,32.28
2018-11-28T00:49:27.006Z,31.70
2018-11-28T00:51:55.118Z,23.65
2018-11-28T00:54:23.246Z,28.77
2018-11-28T00:56:51.362Z,27.70
2018-11-28T00:59:19.476Z,26.80
2018-11-28T01:01:47.587Z,34.57
2018-11-28T01:04:15.712Z,31.85
2018-11-28T01:06:43.821Z,32.13
2018-11-28T01:09:11.950Z,33.50
2018-11-28T01:11:40.115Z,33.90
2018-11-28T01:14:08.330Z,30.00
2018-11-28T01:16:36.434Z,30.20
2018-11-28T01:19:04.841Z,31.27
2018-11-28T01:21:33.033Z,29.75
2018-11-28T01:24:01.186Z,38.78
2018-11-28T01:26:29.321Z,35.05
2018-11-28T01:28:57.453Z,36.57
2018-11-28T01:31:25.586Z,37.08
2018-11-28T01:33:53.705Z,34.18
2018-11-28T01:36:21.838Z,34.40
2018-11-28T01:38:49.949Z,33.15
2018-11-28T01:41:18.075Z,31.52
2018-11-28T01:43:46.189Z,32.93
2018-11-28T01:46:14.347Z,31.62
2018-11-28T01:48:42.454Z,29.65
2018-11-28T01:51:10.578Z,32.80
2018-11-28T01:53:38.693Z,32.80
2018-11-28T01:56:06.818Z,38.67
2018-11-28T01:58:34.947Z,36.70
2018-11-28T02:01:03.077Z,38.35
2018-11-28T02:03:31.178Z,36.10
2018-11-28T02:05:59.298Z,40.28
2018-11-28T02:08:27.426Z,37.45
2018-11-28T02:10:55.623Z,38.80
2018-11-28T02:13:23.741Z,44.08
2018-11-28T02:15:51.862Z,37.00
2018-11-28T02:18:19.986Z,34.48
2018-11-28T02:20:48.110Z,34.67
2018-11-28T02:23:16.268Z,37.33
2018-11-28T02:25:44.403Z,27.75
2018-11-28T02:28:12.538Z,29.92
2018-11-28T02:30:40.694Z,34.05
2018-11-28T02:33:08.813Z,33.65
2018-11-28T02:35:36.946Z,31.65
2018-11-28T02:38:05.183Z,34.83
2018-11-28T02:40:33.310Z,33.50
2018-11-28T02:43:01.441Z,31.35
2018-11-28T02:45:29.561Z,33.60
2018-11-28T02:47:57.693Z,36.48
2018-11-28T02:50:25.822Z,32.60
2018-11-28T02:52:53.934Z,32.95
2018-11-28T02:55:23.489Z,35.87
2018-11-28T02:57:51.818Z,31.12
2018-11-28T03:00:23.907Z,29.15
2018-11-28T03:02:52.100Z,32.25
2018-11-28T03:05:20.383Z,34.35
2018-11-28T03:07:48.506Z,33.35
2018-11-28T03:10:20.509Z,31.17
2018-11-28T03:12:48.635Z,36.58
2018-11-28T03:15:37.794Z,36.42
2018-11-28T03:18:06.901Z,30.45
2018-11-28T03:20:35.034Z,33.18
2018-11-28T03:23:03.148Z,34.83
2018-11-28T03:25:31.271Z,31.15
2018-11-28T03:27:59.407Z,33.02
2018-11-28T03:30:27.547Z,32.98
2018-11-28T03:32:55.670Z,33.08
2018-11-28T03:35:23.771Z,35.60
2018-11-28T03:37:51.882Z,30.92
2018-11-28T03:40:20.013Z,32.33
2018-11-28T03:42:48.129Z,34.85
2018-11-28T03:45:16.611Z,35.05
2018-11-28T03:47:45.341Z,34.43
2018-11-28T03:50:15.263Z,29.05
2018-11-28T03:52:43.377Z,33.98
2018-11-28T03:55:13.248Z,32.10
2018-11-28T03:57:41.545Z,32.50
2018-11-28T04:00:14.810Z,30.88
2018-11-28T04:02:42.958Z,32.05
2018-11-28T04:05:11.563Z,32.28
2018-11-28T04:07:39.715Z,30.80
2018-11-28T04:10:10.185Z,42.73
2018-11-28T04:12:38.868Z,34.25
2018-11-28T04:15:10.731Z,29.40
2018-11-28T04:17:38.865Z,31.20
2018-11-28T04:20:12.680Z,30.68
2018-11-28T04:22:40.818Z,32.30
2018-11-28T04:25:09.960Z,32.00
2018-11-28T04:27:38.089Z,29.55
2018-11-28T04:30:10.418Z,32.65
2018-11-28T04:32:38.619Z,31.62
2018-11-28T04:35:08.506Z,35.90
2018-11-28T04:37:36.627Z,36.00
2018-11-28T04:40:07.707Z,35.25
2018-11-28T04:42:35.839Z,34.70
2018-11-28T04:45:04.001Z,37.53
2018-11-28T04:47:32.115Z,30.82
2018-11-28T04:50:00.240Z,31.27
2018-11-28T04:52:28.366Z,30.57
2018-11-28T04:54:56.484Z,30.97
2018-11-28T04:57:24.614Z,37.08
2018-11-28T04:59:52.741Z,39.35
2018-11-28T05:02:20.845Z,34.25
2018-11-28T05:04:48.967Z,34.70
2018-11-28T05:07:25.433Z,30.17
2018-11-28T05:09:53.593Z,36.50
2018-11-28T05:12:21.976Z,34.00
2018-11-28T05:14:50.453Z,30.70
2018-11-28T05:17:18.762Z,31.75
2018-11-28T05:19:46.867Z,35.40
2018-11-28T05:22:15.001Z,35.13
2018-11-28T05:24:43.148Z,34.73
2018-11-28T05:27:11.301Z,33.23
2018-11-28T05:29:39.439Z,33.18
2018-11-28T05:32:08.215Z,31.12
2018-11-28T05:34:36.415Z,33.95
2018-11-28T05:37:04.962Z,31.73
2018-11-28T05:39:39.433Z,28.80
2018-11-28T05:42:07.592Z,30.20
2018-11-28T05:44:36.574Z,36.13
2018-11-28T05:47:04.747Z,28.87
2018-11-28T05:49:32.919Z,34.35
2018-11-28T05:52:01.073Z,30.17
2018-11-28T05:54:29.233Z,34.67
2018-11-28T05:56:57.395Z,33.25
2018-11-28T05:59:27.524Z,31.10
2018-11-28T06:01:53.722Z,32.03
2018-11-28T06:04:21.866Z,33.92
2018-11-28T06:06:50.019Z,29.35
2018-11-28T06:09:18.172Z,30.15
2018-11-28T06:11:46.309Z,34.05
2018-11-28T06:14:14.463Z,32.42
2018-11-28T06:16:42.615Z,29.98
2018-11-28T06:19:10.778Z,29.50
2018-11-28T06:21:39.071Z,33.55
2018-11-28T06:24:07.210Z,31.60
2018-11-28T06:26:35.419Z,36.98
2018-11-28T06:29:03.569Z,33.70
2018-11-28T06:31:31.705Z,33.25
2018-11-28T06:33:59.873Z,36.33
2018-11-28T06:36:28.043Z,30.88
2018-11-28T06:38:56.194Z,38.20
2018-11-28T06:41:24.363Z,34.03
2018-11-28T06:43:52.525Z,34.30
2018-11-28T06:46:20.692Z,32.58
2018-11-28T06:48:48.917Z,35.85
2018-11-28T06:51:17.071Z,30.97
2018-11-28T06:53:45.222Z,28.27
2018-11-28T06:56:13.362Z,34.83
2018-11-28T06:58:41.522Z,35.70
2018-11-28T07:01:09.675Z,33.73
2018-11-28T07:03:37.834Z,32.30
2018-11-28T07:06:05.996Z,34.15
2018-11-28T07:08:34.143Z,27.37
2018-11-28T07:11:02.281Z,30.23
2018-11-28T07:13:30.482Z,31.15
2018-11-28T07:15:58.638Z,33.40
2018-11-28T07:18:37.974Z,28.60
2018-11-28T07:21:06.110Z,29.10
2018-11-28T07:23:34.262Z,34.15
2018-11-28T07:26:02.389Z,31.55
2018-11-28T07:28:31.060Z,35.03
2018-11-28T07:30:59.226Z,37.45
2018-11-28T07:33:27.422Z,32.88
2018-11-28T07:35:55.559Z,35.40
2018-11-28T07:38:23.707Z,28.90
2018-11-28T07:40:51.851Z,32.10
2018-11-28T07:43:19.988Z,38.90
2018-11-28T07:45:50.427Z,34.67
2018-11-28T07:48:18.582Z,30.82
2018-11-28T07:50:47.499Z,30.10
2018-11-28T07:53:14.916Z,39.05
2018-11-28T07:55:43.046Z,33.63
2018-11-28T07:58:11.204Z,31.33
2018-11-28T08:00:39.356Z,34.33
2018-11-28T08:03:08.800Z,34.50
2018-11-28T08:05:38.166Z,34.25
2018-11-28T08:08:08.089Z,37.48
2018-11-28T08:10:36.280Z,35.05
2018-11-28T08:13:04.488Z,34.13
2018-11-28T08:15:32.640Z,39.98
2018-11-28T08:18:00.789Z,43.15
2018-11-28T08:20:29.083Z,45.90
2018-11-28T08:22:57.233Z,41.18
2018-11-28T08:25:27.895Z,47.20
2018-11-28T08:27:53.544Z,42.78
2018-11-28T08:30:23.697Z,58.50
2018-11-28T08:32:52.080Z,47.73
2018-11-28T08:35:20.262Z,50.83
2018-11-28T08:37:48.405Z,56.83
2018-11-28T08:40:20.907Z,57.30
2018-11-28T08:42:49.112Z,61.68
2018-11-28T08:45:18.284Z,59.15
2018-11-28T08:47:47.395Z,80.28
2018-11-28T08:50:17.869Z,58.38
2018-11-28T08:52:45.980Z,58.35
2018-11-28T08:55:14.380Z,65.47
2018-11-28T08:57:42.602Z,54.73
2018-11-28T09:00:17.058Z,62.85
2018-11-28T09:02:46.257Z,57.80
2018-11-28T09:05:14.724Z,64.57
2018-11-28T09:07:42.915Z,65.17
2018-11-28T09:10:13.909Z,63.70
2018-11-28T09:12:42.001Z,64.07
2018-11-28T09:15:16.370Z,64.62
2018-11-28T09:17:44.517Z,62.53
2018-11-28T09:20:13.619Z,55.13
2018-11-28T09:22:41.782Z,63.25
2018-11-28T09:25:12.110Z,61.80
2018-11-28T09:27:40.281Z,55.67
2018-11-28T09:30:11.121Z,59.33
2018-11-28T09:32:39.268Z,62.13
2018-11-28T09:35:08.497Z,60.33
2018-11-28T09:37:36.655Z,56.33
2018-11-28T09:40:08.535Z,57.40
2018-11-28T09:42:36.777Z,61.43
2018-11-28T09:45:05.287Z,60.30
2018-11-28T09:47:33.461Z,58.57
2018-11-28T09:50:01.595Z,61.83
2018-11-28T09:52:29.892Z,50.40
2018-11-28T09:54:58.039Z,61.00
2018-11-28T09:57:26.178Z,61.03
2018-11-28T09:59:54.306Z,56.60
2018-11-28T10:02:22.449Z,53.07
2018-11-28T10:04:50.573Z,52.17
2018-11-28T10:07:18.723Z,52.53
2018-11-28T10:09:46.917Z,61.23
2018-11-28T10:12:15.074Z,62.47
2018-11-28T10:14:43.238Z,66.20
2018-11-28T10:17:11.388Z,59.67
2018-11-28T10:19:39.534Z,57.60
2018-11-28T10:22:07.655Z,56.20
2018-11-28T10:24:35.794Z,58.30
2018-11-28T10:27:03.941Z,56.10
2018-11-28T10:29:32.071Z,59.00
2018-11-28T10:32:00.213Z,55.20
2018-11-28T10:34:29.578Z,46.80
2018-11-28T10:36:56.528Z,50.00
2018-11-28T10:39:24.762Z,48.17
2018-11-28T10:41:52.967Z,49.70
2018-11-28T10:44:21.116Z,50.07
2018-11-28T10:46:49.281Z,46.37
2018-11-28T10:49:17.434Z,49.60
2018-11-28T10:51:50.278Z,46.43
2018-11-28T10:54:13.743Z,49.17
2018-11-28T10:56:41.874Z,51.20
2018-11-28T10:59:10.015Z,48.27
2018-11-28T11:01:43.490Z,45.43
2018-11-28T11:04:15.133Z,43.20
2018-11-28T11:06:49.103Z,44.07
2018-11-28T11:10:24.147Z,44.20
2018-11-28T11:12:57.818Z,38.53
2018-11-28T11:15:25.983Z,37.77
2018-11-28T11:17:54.244Z,40.37
2018-11-28T11:20:22.430Z,40.57
2018-11-28T11:22:50.571Z,37.10
2018-11-28T11:25:18.738Z,42.60
2018-11-28T11:27:46.874Z,42.20
2018-11-28T11:30:15.104Z,33.23
2018-11-28T11:32:43.256Z,32.40
2018-11-28T11:35:11.400Z,33.97
2018-11-28T11:37:39.551Z,35.17
2018-11-28T11:40:10.258Z,41.43
2018-11-28T11:42:38.496Z,32.87
2018-11-28T11:45:09.233Z,41.43
2018-11-28T11:47:37.373Z,35.20
2018-11-28T11:50:09.511Z,38.17
2018-11-28T11:52:37.664Z,33.77
2018-11-28T11:55:07.146Z,34.70
2018-11-28T11:57:35.287Z,33.27
2018-11-28T12:00:03.712Z,32.33
2018-11-28T12:02:31.888Z,36.13
2018-11-28T12:05:00.049Z,37.97
2018-11-28T12:07:28.203Z,31.93
2018-11-28T12:09:56.374Z,29.10
2018-11-28T12:12:24.511Z,40.00
2018-11-28T12:14:52.676Z,36.50
2018-11-28T12:17:20.812Z,37.40
2018-11-28T12:19:48.975Z,40.97
2018-11-28T12:22:17.132Z,40.77
2018-11-28T12:24:45.287Z,34.93
2018-11-28T12:27:13.442Z,39.37
2018-11-28T12:29:41.583Z,42.90
2018-11-28T12:32:09.731Z,39.27
2018-11-28T12:34:37.895Z,42.43
2018-11-28T12:37:06.619Z,42.80
2018-11-28T12:39:34.778Z,44.13
2018-11-28T12:42:02.946Z,45.40
2018-11-28T12:44:31.085Z,44.80
2018-11-28T12:46:59.233Z,45.83
2018-11-28T12:49:27.380Z,46.00
2018-11-28T12:51:55.542Z,48.00
2018-11-28T12:54:23.674Z,40.90
2018-11-28T12:56:51.821Z,38.83
2018-11-28T13:02:10.435Z,37.93
2018-11-28T13:04:38.562Z,39.20
2018-11-28T13:07:06.689Z,38.20
2018-11-28T13:09:34.890Z,41.90
2018-11-28T13:12:03.022Z,43.53
2018-11-28T13:14:31.129Z,42.80
2018-11-28T13:16:59.264Z,44.03
2018-11-28T13:19:27.379Z,37.20
2018-11-28T13:21:55.482Z,39.00
2018-11-28T13:24:23.598Z,35.70
2018-11-28T13:26:51.738Z,36.10
2018-11-28T13:29:19.855Z,42.53
2018-11-28T13:31:47.965Z,40.47
2018-11-28T13:34:16.094Z,33.40
2018-11-28T13:36:44.246Z,41.17
2018-11-28T13:39:12.401Z,40.23
2018-11-28T13:41:40.531Z,39.73
2018-11-28T13:44:08.685Z,38.83
2018-11-28T13:46:36.797Z,37.50
2018-11-28T13:49:05.287Z,38.90
2018-11-28T13:51:39.835Z,40.60
2018-11-28T13:54:21.038Z,37.20
2018-11-28T13:59:04.221Z,37.30
2018-11-28T14:01:32.309Z,35.60
2018-11-28T14:04:00.420Z,36.63
2018-11-28T14:06:28.507Z,38.53
2018-11-28T14:08:56.617Z,38.13
2018-11-28T14:11:24.789Z,35.00
2018-11-28T14:13:52.927Z,44.13
2018-11-28T14:16:21.049Z,40.43
2018-11-28T14:18:49.174Z,33.43
2018-11-28T14:21:17.299Z,42.93
2018-11-28T14:23:45.426Z,39.60
2018-11-28T14:26:13.536Z,41.00
2018-11-28T14:28:41.681Z,40.57
2018-11-28T14:31:09.818Z,43.77
2018-11-28T14:33:37.952Z,42.27
2018-11-28T14:36:06.222Z,41.80
2018-11-28T14:38:34.293Z,40.10
2018-11-28T14:41:02.516Z,42.27
2018-11-28T14:43:30.638Z,46.83
2018-11-28T14:45:58.869Z,45.23
2018-11-28T14:48:27.000Z,40.23
2018-11-28T14:50:55.160Z,38.70
2018-11-28T14:53:23.257Z,44.07
2018-11-28T14:55:51.396Z,40.20
2018-11-28T14:58:19.516Z,38.77
2018-11-28T15:00:47.643Z,39.80
2018-11-28T15:03:18.014Z,47.67
2018-11-28T15:06:28.843Z,47.17
2018-11-28T15:09:02.369Z,63.30
2018-11-28T15:11:30.571Z,56.27
2018-11-28T15:13:58.761Z,46.43
2018-11-28T15:16:26.945Z,55.63
2018-11-28T15:18:55.069Z,42.07
2018-11-28T15:21:23.203Z,50.10
2018-11-28T15:23:51.341Z,41.27
2018-11-28T15:26:19.462Z,43.40
2018-11-28T15:28:47.761Z,52.40
2018-11-28T15:31:15.875Z,49.70
2018-11-28T15:33:44.000Z,51.87
2018-11-28T15:36:12.157Z,63.17
2018-11-28T15:38:40.292Z,47.43
2018-11-28T15:41:08.413Z,42.33
2018-11-28T15:43:36.568Z,51.10
2018-11-28T15:46:05.322Z,53.70
2018-11-28T15:48:33.717Z,50.03
2018-11-28T15:51:01.852Z,43.10
2018-11-28T15:53:29.955Z,54.97
2018-11-28T15:55:58.076Z,43.03
2018-11-28T15:58:26.172Z,48.30
2018-11-28T16:00:54.292Z,52.50
2018-11-28T16:03:22.388Z,43.40
2018-11-28T16:05:50.493Z,45.50
2018-11-28T16:08:18.596Z,39.40
2018-11-28T16:10:46.741Z,35.30
2018-11-28T16:13:16.251Z,38.10
2018-11-28T16:15:47.831Z,37.20
2018-11-28T16:18:16.050Z,38.00
2018-11-28T16:20:44.213Z,40.57
2018-11-28T16:23:12.360Z,43.50
2018-11-28T16:25:40.476Z,35.40
2018-11-28T16:28:08.986Z,39.03
2018-11-28T16:30:37.108Z,38.13
2018-11-28T16:33:06.153Z,39.70
2018-11-28T16:35:34.578Z,38.27
2018-11-28T16:38:02.712Z,50.70
2018-11-28T16:40:30.821Z,47.10
2018-11-28T16:42:59.033Z,44.50
2018-11-28T16:45:27.262Z,42.23
2018-11-28T16:47:55.410Z,48.97
2018-11-28T16:50:23.519Z,50.83
2018-11-28T16:52:51.651Z,44.80
2018-11-28T16:55:19.774Z,43.87
2018-11-28T16:57:51.520Z,46.60
2018-11-28T17:00:21.097Z,48.30
2018-11-28T17:02:49.697Z,49.03
2018-11-28T17:05:18.880Z,50.03
2018-11-28T17:07:47.378Z,56.53
2018-11-28T17:10:16.556Z,47.83
2018-11-28T17:12:45.652Z,52.33
2018-11-28T17:15:14.961Z,46.07
2018-11-28T17:17:43.332Z,56.57
2018-11-28T17:20:19.901Z,46.33
2018-11-28T17:22:48.708Z,49.23
2018-11-28T17:25:20.345Z,50.43
2018-11-28T17:27:48.490Z,40.03
2018-11-28T17:30:19.050Z,42.90
2018-11-28T17:32:46.257Z,44.27
2018-11-28T17:35:14.650Z,49.27
2018-11-28T17:37:42.833Z,42.67
2018-11-28T17:40:12.382Z,48.90
2018-11-28T17:42:40.976Z,41.57
2018-11-28T17:45:10.473Z,48.00
2018-11-28T17:47:38.594Z,47.90
2018-11-28T17:50:09.473Z,46.57
2018-11-28T17:52:37.619Z,51.37
2018-11-28T17:55:08.489Z,53.83
2018-11-28T17:57:36.672Z,48.33
2018-11-28T18:00:07.705Z,47.00
2018-11-28T18:02:35.903Z,55.17
2018-11-28T18:05:04.349Z,46.17
2018-11-28T18:07:32.495Z,40.47
2018-11-28T18:10:00.620Z,50.67
2018-11-28T18:12:28.871Z,41.93
2018-11-28T18:14:57.044Z,47.37
2018-11-28T18:17:25.190Z,41.47
2018-11-28T18:19:53.375Z,41.00
2018-11-28T18:22:21.560Z,39.07
2018-11-28T18:24:49.661Z,38.20
2018-11-28T18:27:17.870Z,41.50
2018-11-28T18:29:45.978Z,41.00
2018-11-28T18:32:14.197Z,33.30
2018-11-28T18:34:42.407Z,43.90
2018-11-28T18:37:10.558Z,42.13
2018-11-28T18:39:38.738Z,42.37
2018-11-28T18:42:06.949Z,42.10
2018-11-28T18:44:35.068Z,41.03
2018-11-28T18:47:03.280Z,33.80
2018-11-28T18:49:31.398Z,35.50
2018-11-28T18:51:59.509Z,40.00
2018-11-28T18:54:27.748Z,38.40
2018-11-28T18:56:55.966Z,42.47
2018-11-28T18:59:24.149Z,45.13
2018-11-28T19:01:52.277Z,47.03
2018-11-28T19:04:20.404Z,49.63
2018-11-28T19:06:48.536Z,52.20
2018-11-28T19:09:22.109Z,71.97
2018-11-28T19:11:50.237Z,69.40
2018-11-28T19:14:18.392Z,60.17
2018-11-28T19:16:46.486Z,53.80
2018-11-28T19:19:14.603Z,41.03
2018-11-28T19:21:42.746Z,39.87
2018-11-28T19:24:10.851Z,44.50
2018-11-28T19:26:38.990Z,37.30
2018-11-28T19:29:07.085Z,43.10
2018-11-28T19:31:35.205Z,37.10
2018-11-28T19:34:03.349Z,40.50
2018-11-28T19:36:31.446Z,44.93
2018-11-28T19:38:59.554Z,42.47
2018-11-28T19:41:27.784Z,38.30
2018-11-28T19:43:55.916Z,33.17
2018-11-28T19:46:24.234Z,29.50
2018-11-28T19:48:52.328Z,46.87
2018-11-28T19:51:20.429Z,32.53
2018-11-28T19:53:48.547Z,38.93
2018-11-28T19:56:16.632Z,41.87
2018-11-28T19:58:44.736Z,27.07
2018-11-28T20:01:12.832Z,18.83
2018-11-28T20:03:40.932Z,19.10
2018-11-28T20:06:11.870Z,18.33
2018-11-28T20:08:40.009Z,19.20
2018-11-28T20:11:08.160Z,15.70
2018-11-28T20:13:36.342Z,18.90
2018-11-28T20:16:04.467Z,15.97
2018-11-28T20:18:32.580Z,17.17
2018-11-28T20:21:00.757Z,13.10
2018-11-28T20:23:28.992Z,18.73
2018-11-28T20:25:57.145Z,17.07
2018-11-28T20:28:25.273Z,20.70
2018-11-28T20:30:53.394Z,17.60
2018-11-28T20:33:21.620Z,17.27
2018-11-28T20:35:50.218Z,18.60
2018-11-28T20:38:20.933Z,18.97
2018-11-28T20:40:49.137Z,16.37
2018-11-28T20:43:17.264Z,18.83
2018-11-28T20:45:45.422Z,19.13
2018-11-28T20:48:13.557Z,20.33
2018-11-28T20:50:42.484Z,20.07
2018-11-28T20:53:12.240Z,18.80
2018-11-28T20:55:40.922Z,21.53
2018-11-28T20:58:09.046Z,16.77
2018-11-28T21:00:37.218Z,20.50
2018-11-28T21:03:05.758Z,18.90
2018-11-28T21:05:33.903Z,18.53
2018-11-28T21:08:02.021Z,16.80
2018-11-28T21:10:36.883Z,16.80
2018-11-28T21:13:06.851Z,16.10
2018-11-28T21:15:34.990Z,15.87
2018-11-28T21:18:03.117Z,17.67
2018-11-28T21:20:31.227Z,14.70
2018-11-28T21:23:00.656Z,15.97
2018-11-28T21:25:28.772Z,16.97
2018-11-28T21:27:56.929Z,18.77
2018-11-28T21:30:25.067Z,17.07
2018-11-28T21:32:54.096Z,17.60
2018-11-28T21:35:30.392Z,20.03
2018-11-28T21:37:59.073Z,16.03
2018-11-28T21:40:27.341Z,14.50
2018-11-28T21:42:55.530Z,17.10
2018-11-28T21:45:24.272Z,16.90
2018-11-28T21:47:52.397Z,16.53
2018-11-28T21:50:20.514Z,13.00
2018-11-28T21:52:48.737Z,16.87
2018-11-28T21:55:18.809Z,14.10
2018-11-28T21:57:46.965Z,17.13
2018-11-28T22:00:17.922Z,13.30
2018-11-28T22:02:46.037Z,12.47
2018-11-28T22:05:14.988Z,16.20
2018-11-28T22:07:43.087Z,15.50
2018-11-28T22:10:16.049Z,13.37
2018-11-28T22:12:44.198Z,12.57
2018-11-28T22:15:13.316Z,16.50
2018-11-28T22:17:42.664Z,15.80
2018-11-28T22:20:11.712Z,15.73
2018-11-28T22:22:39.809Z,12.50
2018-11-28T22:25:13.185Z,13.73
2018-11-28T22:27:41.303Z,15.83
2018-11-28T22:30:11.069Z,15.50
2018-11-28T22:32:39.249Z,15.83
2018-11-28T22:35:07.829Z,16.13
2018-11-28T22:37:35.949Z,13.67
2018-11-28T22:40:08.409Z,16.30
2018-11-28T22:42:36.506Z,12.30
2018-11-28T22:45:06.164Z,12.90
2018-11-28T22:47:34.273Z,12.57
2018-11-28T22:50:02.367Z,11.10
2018-11-28T22:52:30.459Z,12.30
2018-11-28T22:54:58.554Z,11.07
2018-11-28T22:57:26.667Z,12.53
2018-11-28T22:59:54.783Z,16.77
2018-11-28T23:02:55.309Z,20.13
2018-11-28T23:05:27.066Z,19.30
2018-11-28T23:07:55.917Z,21.53
2018-11-28T23:10:24.017Z,19.40
2018-11-28T23:12:52.157Z,24.70
2018-11-28T23:15:20.307Z,15.60
2018-11-28T23:17:48.396Z,14.30
2018-11-28T23:20:16.522Z,14.67
2018-11-28T23:22:44.642Z,14.07
2018-11-28T23:25:12.871Z,12.93
2018-11-28T23:27:40.992Z,15.10
2018-11-28T23:30:14.313Z,10.90
2018-11-28T23:32:42.454Z,14.10
2018-11-28T23:35:11.246Z,14.53
2018-11-28T23:37:40.138Z,13.30
2018-11-28T23:40:13.419Z,13.70
2018-11-28T23:42:41.524Z,12.80
2018-11-28T23:45:11.523Z,12.00
2018-11-28T23:47:39.642Z,15.10
2018-11-28T23:50:19.457Z,12.20
2018-11-28T23:52:47.937Z,11.90
2018-11-28T23:55:20.818Z,15.17
2018-11-28T23:57:48.976Z,12.53
